sensor_id;sensor_type;location;lat;lon;timestamp;P1;durP1;ratioP1;P2;durP2;ratioP2
57303;SDS011;43150;50.986;18.208;2024-03-08T00:00:26;15.80;;;8.10;;
57303;SDS011;43150;50.986;18.208;2024-03-08T00:02:52;13.50;;;7.40;;
57303;SDS011;43150;50.986;18.208;2024-03-08T00:05:19;18.10;;;9.00;;
57303;SDS011;43150;50.986;18.208;2024-03-08T00:07:45;18.50;;;10.50;;
57303;SDS011;43150;50.986;18.208;2024-03-08T00:10:10;12.00;;;7.40;;
57303;SDS011;43150;50.986;18.208;2024-03-08T00:12:37;18.60;;;9.70;;
57303;SDS011;43150;50.986;18.208;2024-03-08T00:15:02;18.80;;;10.50;;
57303;SDS011;43150;50.986;18.208;2024-03-08T00:17:28;14.80;;;8.40;;
57303;SDS011;43150;50.986;18.208;2024-03-08T00:19:54;16.20;;;7.70;;
57303;SDS011;43150;50.986;18.208;2024-03-08T00:22:19;20.50;;;9.30;;
57303;SDS011;43150;50.986;18.208;2024-03-08T00:24:46;18.90;;;7.30;;
57303;SDS011;43150;50.986;18.208;2024-03-08T00:27:11;21.80;;;8.30;;
57303;SDS011;43150;50.986;18.208;2024-03-08T00:29:37;15.90;;;7.50;;
57303;SDS011;43150;50.986;18.208;2024-03-08T00:32:04;14.60;;;6.60;;
57303;SDS011;43150;50.986;18.208;2024-03-08T00:34:29;13.00;;;7.90;;
57303;SDS011;43150;50.986;18.208;2024-03-08T00:36:55;15.40;;;7.90;;
57303;SDS011;43150;50.986;18.208;2024-03-08T00:39:20;16.20;;;7.40;;
57303;SDS011;43150;50.986;18.208;2024-03-08T00:41:46;15.40;;;7.60;;
57303;SDS011;43150;50.986;18.208;2024-03-08T00:44:13;15.00;;;8.80;;
57303;SDS011;43150;50.986;18.208;2024-03-08T00:46:38;17.90;;;8.90;;
57303;SDS011;43150;50.986;18.208;2024-03-08T00:49:04;11.30;;;6.10;;
57303;SDS011;43150;50.986;18.208;2024-03-08T00:51:30;19.60;;;7.50;;
57303;SDS011;43150;50.986;18.208;2024-03-08T00:53:55;20.50;;;8.20;;
57303;SDS011;43150;50.986;18.208;2024-03-08T00:56:21;13.50;;;6.70;;
57303;SDS011;43150;50.986;18.208;2024-03-08T00:58:47;26.30;;;9.60;;
57303;SDS011;43150;50.986;18.208;2024-03-08T01:01:13;15.60;;;9.60;;
57303;SDS011;43150;50.986;18.208;2024-03-08T01:03:42;16.20;;;9.10;;
57303;SDS011;43150;50.986;18.208;2024-03-08T01:06:08;29.70;;;6.40;;
57303;SDS011;43150;50.986;18.208;2024-03-08T01:08:33;14.30;;;7.80;;
57303;SDS011;43150;50.986;18.208;2024-03-08T01:10:59;16.40;;;7.80;;
57303;SDS011;43150;50.986;18.208;2024-03-08T01:13:24;16.90;;;8.30;;
57303;SDS011;43150;50.986;18.208;2024-03-08T01:15:50;16.90;;;8.50;;
57303;SDS011;43150;50.986;18.208;2024-03-08T01:18:15;17.60;;;7.80;;
57303;SDS011;43150;50.986;18.208;2024-03-08T01:20:41;21.20;;;9.20;;
57303;SDS011;43150;50.986;18.208;2024-03-08T01:23:06;14.40;;;8.30;;
57303;SDS011;43150;50.986;18.208;2024-03-08T01:25:33;19.10;;;10.30;;
57303;SDS011;43150;50.986;18.208;2024-03-08T01:27:58;16.20;;;7.90;;
57303;SDS011;43150;50.986;18.208;2024-03-08T01:30:24;18.20;;;9.00;;
57303;SDS011;43150;50.986;18.208;2024-03-08T01:32:50;15.90;;;7.70;;
57303;SDS011;43150;50.986;18.208;2024-03-08T01:35:15;19.20;;;8.80;;
57303;SDS011;43150;50.986;18.208;2024-03-08T01:37:41;19.20;;;10.30;;
57303;SDS011;43150;50.986;18.208;2024-03-08T01:40:06;9.20;;;6.40;;
57303;SDS011;43150;50.986;18.208;2024-03-08T01:42:34;12.10;;;6.70;;
57303;SDS011;43150;50.986;18.208;2024-03-08T01:45:06;12.60;;;7.80;;
57303;SDS011;43150;50.986;18.208;2024-03-08T01:47:32;16.70;;;8.50;;
57303;SDS011;43150;50.986;18.208;2024-03-08T01:49:58;15.30;;;8.10;;
57303;SDS011;43150;50.986;18.208;2024-03-08T01:52:25;16.00;;;7.80;;
57303;SDS011;43150;50.986;18.208;2024-03-08T01:54:51;21.80;;;8.10;;
57303;SDS011;43150;50.986;18.208;2024-03-08T01:57:17;11.50;;;6.00;;
57303;SDS011;43150;50.986;18.208;2024-03-08T01:59:42;14.40;;;7.70;;
57303;SDS011;43150;50.986;18.208;2024-03-08T02:02:09;10.80;;;6.10;;
57303;SDS011;43150;50.986;18.208;2024-03-08T02:04:36;14.90;;;7.80;;
57303;SDS011;43150;50.986;18.208;2024-03-08T02:07:03;17.70;;;9.20;;
57303;SDS011;43150;50.986;18.208;2024-03-08T02:09:30;18.30;;;9.00;;
57303;SDS011;43150;50.986;18.208;2024-03-08T02:11:56;16.50;;;8.30;;
57303;SDS011;43150;50.986;18.208;2024-03-08T02:14:22;17.40;;;10.10;;
57303;SDS011;43150;50.986;18.208;2024-03-08T02:16:49;17.10;;;7.50;;
57303;SDS011;43150;50.986;18.208;2024-03-08T02:19:16;22.50;;;10.70;;
57303;SDS011;43150;50.986;18.208;2024-03-08T02:21:42;16.90;;;8.90;;
57303;SDS011;43150;50.986;18.208;2024-03-08T02:24:07;19.40;;;9.40;;
57303;SDS011;43150;50.986;18.208;2024-03-08T02:26:32;11.30;;;6.50;;
57303;SDS011;43150;50.986;18.208;2024-03-08T02:28:58;12.10;;;6.60;;
57303;SDS011;43150;50.986;18.208;2024-03-08T02:31:23;20.10;;;10.40;;
57303;SDS011;43150;50.986;18.208;2024-03-08T02:33:49;14.20;;;8.20;;
57303;SDS011;43150;50.986;18.208;2024-03-08T02:36:15;15.20;;;7.20;;
57303;SDS011;43150;50.986;18.208;2024-03-08T02:38:41;18.80;;;8.90;;
57303;SDS011;43150;50.986;18.208;2024-03-08T02:41:06;19.00;;;7.90;;
57303;SDS011;43150;50.986;18.208;2024-03-08T02:43:34;18.80;;;7.20;;
57303;SDS011;43150;50.986;18.208;2024-03-08T02:46:00;17.80;;;8.40;;
57303;SDS011;43150;50.986;18.208;2024-03-08T02:48:25;13.40;;;6.30;;
57303;SDS011;43150;50.986;18.208;2024-03-08T02:50:51;7.60;;;4.60;;
57303;SDS011;43150;50.986;18.208;2024-03-08T02:53:16;12.90;;;8.90;;
57303;SDS011;43150;50.986;18.208;2024-03-08T02:55:44;13.10;;;8.00;;
57303;SDS011;43150;50.986;18.208;2024-03-08T02:58:09;6.70;;;4.00;;
57303;SDS011;43150;50.986;18.208;2024-03-08T03:00:35;10.80;;;4.90;;
57303;SDS011;43150;50.986;18.208;2024-03-08T03:03:01;11.60;;;6.90;;
57303;SDS011;43150;50.986;18.208;2024-03-08T03:05:28;20.60;;;9.30;;
57303;SDS011;43150;50.986;18.208;2024-03-08T03:07:54;18.40;;;8.30;;
57303;SDS011;43150;50.986;18.208;2024-03-08T03:10:20;17.60;;;7.30;;
57303;SDS011;43150;50.986;18.208;2024-03-08T03:12:47;15.10;;;8.00;;
57303;SDS011;43150;50.986;18.208;2024-03-08T03:15:14;11.60;;;6.10;;
57303;SDS011;43150;50.986;18.208;2024-03-08T03:17:40;22.10;;;12.00;;
57303;SDS011;43150;50.986;18.208;2024-03-08T03:20:08;19.90;;;11.60;;
57303;SDS011;43150;50.986;18.208;2024-03-08T03:22:39;18.20;;;8.60;;
57303;SDS011;43150;50.986;18.208;2024-03-08T03:25:06;14.20;;;9.60;;
57303;SDS011;43150;50.986;18.208;2024-03-08T03:27:32;12.40;;;7.80;;
57303;SDS011;43150;50.986;18.208;2024-03-08T03:29:58;7.70;;;5.30;;
57303;SDS011;43150;50.986;18.208;2024-03-08T03:32:24;13.70;;;7.50;;
57303;SDS011;43150;50.986;18.208;2024-03-08T03:34:49;11.30;;;7.20;;
57303;SDS011;43150;50.986;18.208;2024-03-08T03:37:21;24.70;;;12.30;;
57303;SDS011;43150;50.986;18.208;2024-03-08T03:39:47;22.80;;;12.80;;
57303;SDS011;43150;50.986;18.208;2024-03-08T03:42:18;19.00;;;10.60;;
57303;SDS011;43150;50.986;18.208;2024-03-08T03:44:44;23.00;;;9.30;;
57303;SDS011;43150;50.986;18.208;2024-03-08T03:47:10;17.00;;;9.10;;
57303;SDS011;43150;50.986;18.208;2024-03-08T03:49:36;9.10;;;5.70;;
57303;SDS011;43150;50.986;18.208;2024-03-08T03:58:57;24.30;;;12.10;;
57303;SDS011;43150;50.986;18.208;2024-03-08T04:01:22;13.90;;;8.00;;
57303;SDS011;43150;50.986;18.208;2024-03-08T04:03:51;18.70;;;8.30;;
57303;SDS011;43150;50.986;18.208;2024-03-08T04:06:17;14.30;;;8.50;;
57303;SDS011;43150;50.986;18.208;2024-03-08T04:08:42;16.40;;;9.50;;
57303;SDS011;43150;50.986;18.208;2024-03-08T04:11:08;18.90;;;9.00;;
57303;SDS011;43150;50.986;18.208;2024-03-08T04:13:36;21.90;;;10.70;;
57303;SDS011;43150;50.986;18.208;2024-03-08T04:16:02;19.60;;;10.30;;
57303;SDS011;43150;50.986;18.208;2024-03-08T04:18:28;21.40;;;8.90;;
57303;SDS011;43150;50.986;18.208;2024-03-08T04:20:53;16.90;;;8.60;;
57303;SDS011;43150;50.986;18.208;2024-03-08T04:23:19;25.20;;;11.20;;
57303;SDS011;43150;50.986;18.208;2024-03-08T04:25:45;23.90;;;9.20;;
57303;SDS011;43150;50.986;18.208;2024-03-08T04:28:11;21.10;;;7.80;;
57303;SDS011;43150;50.986;18.208;2024-03-08T04:30:39;23.50;;;11.30;;
57303;SDS011;43150;50.986;18.208;2024-03-08T04:33:05;15.20;;;8.50;;
57303;SDS011;43150;50.986;18.208;2024-03-08T04:35:32;19.00;;;9.90;;
57303;SDS011;43150;50.986;18.208;2024-03-08T04:37:58;21.20;;;11.30;;
57303;SDS011;43150;50.986;18.208;2024-03-08T04:40:24;21.40;;;10.00;;
57303;SDS011;43150;50.986;18.208;2024-03-08T04:42:50;20.00;;;8.90;;
57303;SDS011;43150;50.986;18.208;2024-03-08T04:45:16;15.70;;;7.50;;
57303;SDS011;43150;50.986;18.208;2024-03-08T04:47:42;17.60;;;6.20;;
57303;SDS011;43150;50.986;18.208;2024-03-08T04:50:08;20.90;;;10.20;;
57303;SDS011;43150;50.986;18.208;2024-03-08T04:52:34;25.90;;;10.50;;
57303;SDS011;43150;50.986;18.208;2024-03-08T04:55:01;19.20;;;8.90;;
57303;SDS011;43150;50.986;18.208;2024-03-08T04:57:27;18.70;;;7.10;;
57303;SDS011;43150;50.986;18.208;2024-03-08T04:59:53;7.30;;;4.20;;
57303;SDS011;43150;50.986;18.208;2024-03-08T05:02:18;13.50;;;7.90;;
57303;SDS011;43150;50.986;18.208;2024-03-08T05:04:44;9.30;;;6.50;;
57303;SDS011;43150;50.986;18.208;2024-03-08T05:07:09;9.30;;;6.50;;
57303;SDS011;43150;50.986;18.208;2024-03-08T05:09:35;20.80;;;10.50;;
57303;SDS011;43150;50.986;18.208;2024-03-08T05:12:01;22.20;;;11.00;;
57303;SDS011;43150;50.986;18.208;2024-03-08T05:14:27;9.10;;;4.30;;
57303;SDS011;43150;50.986;18.208;2024-03-08T05:16:52;17.40;;;8.60;;
57303;SDS011;43150;50.986;18.208;2024-03-08T05:19:18;23.70;;;6.70;;
57303;SDS011;43150;50.986;18.208;2024-03-08T05:21:45;10.90;;;7.80;;
57303;SDS011;43150;50.986;18.208;2024-03-08T05:24:10;23.60;;;11.60;;
57303;SDS011;43150;50.986;18.208;2024-03-08T05:26:36;22.20;;;9.90;;
57303;SDS011;43150;50.986;18.208;2024-03-08T05:29:03;20.50;;;10.20;;
57303;SDS011;43150;50.986;18.208;2024-03-08T05:31:29;16.20;;;7.20;;
57303;SDS011;43150;50.986;18.208;2024-03-08T05:33:56;18.40;;;8.70;;
57303;SDS011;43150;50.986;18.208;2024-03-08T05:36:21;13.40;;;6.40;;
57303;SDS011;43150;50.986;18.208;2024-03-08T05:38:47;15.30;;;9.20;;
57303;SDS011;43150;50.986;18.208;2024-03-08T05:41:15;19.40;;;9.00;;
57303;SDS011;43150;50.986;18.208;2024-03-08T05:43:42;20.60;;;9.60;;
57303;SDS011;43150;50.986;18.208;2024-03-08T05:46:09;21.30;;;10.30;;
57303;SDS011;43150;50.986;18.208;2024-03-08T05:48:36;15.20;;;8.40;;
57303;SDS011;43150;50.986;18.208;2024-03-08T05:51:03;20.50;;;11.20;;
57303;SDS011;43150;50.986;18.208;2024-03-08T05:53:29;25.40;;;12.50;;
57303;SDS011;43150;50.986;18.208;2024-03-08T05:55:57;22.00;;;12.00;;
57303;SDS011;43150;50.986;18.208;2024-03-08T05:58:24;31.40;;;13.30;;
57303;SDS011;43150;50.986;18.208;2024-03-08T06:00:50;20.50;;;11.20;;
57303;SDS011;43150;50.986;18.208;2024-03-08T06:03:15;24.70;;;12.20;;
57303;SDS011;43150;50.986;18.208;2024-03-08T06:05:40;23.30;;;13.10;;
57303;SDS011;43150;50.986;18.208;2024-03-08T06:08:07;29.10;;;14.00;;
57303;SDS011;43150;50.986;18.208;2024-03-08T06:10:33;28.10;;;13.70;;
57303;SDS011;43150;50.986;18.208;2024-03-08T06:12:59;27.20;;;15.60;;
57303;SDS011;43150;50.986;18.208;2024-03-08T06:15:25;27.10;;;15.60;;
57303;SDS011;43150;50.986;18.208;2024-03-08T06:17:55;28.80;;;14.00;;
57303;SDS011;43150;50.986;18.208;2024-03-08T06:20:21;25.90;;;14.30;;
57303;SDS011;43150;50.986;18.208;2024-03-08T08:54:15;16.70;;;14.90;;
57303;SDS011;43150;50.986;18.208;2024-03-08T08:56:42;18.80;;;15.80;;
57303;SDS011;43150;50.986;18.208;2024-03-08T08:59:09;17.70;;;15.80;;
57303;SDS011;43150;50.986;18.208;2024-03-08T09:01:39;17.00;;;15.20;;
57303;SDS011;43150;50.986;18.208;2024-03-08T09:04:04;17.90;;;16.00;;
57303;SDS011;43150;50.986;18.208;2024-03-08T09:06:31;16.80;;;15.00;;
57303;SDS011;43150;50.986;18.208;2024-03-08T09:08:56;16.20;;;14.50;;
57303;SDS011;43150;50.986;18.208;2024-03-08T09:11:21;16.60;;;14.90;;
57303;SDS011;43150;50.986;18.208;2024-03-08T09:13:47;16.90;;;15.30;;
57303;SDS011;43150;50.986;18.208;2024-03-08T09:16:15;19.00;;;17.00;;
57303;SDS011;43150;50.986;18.208;2024-03-08T09:18:41;17.70;;;15.90;;
57303;SDS011;43150;50.986;18.208;2024-03-08T09:21:07;19.10;;;16.50;;
57303;SDS011;43150;50.986;18.208;2024-03-08T09:23:38;19.90;;;17.90;;
57303;SDS011;43150;50.986;18.208;2024-03-08T09:26:03;18.70;;;16.60;;
57303;SDS011;43150;50.986;18.208;2024-03-08T09:28:29;18.30;;;16.40;;
57303;SDS011;43150;50.986;18.208;2024-03-08T09:30:55;19.00;;;17.10;;
57303;SDS011;43150;50.986;18.208;2024-03-08T09:33:20;20.70;;;18.60;;
57303;SDS011;43150;50.986;18.208;2024-03-08T09:35:47;19.60;;;16.80;;
57303;SDS011;43150;50.986;18.208;2024-03-08T09:38:14;22.00;;;18.80;;
57303;SDS011;43150;50.986;18.208;2024-03-08T09:40:43;21.20;;;19.00;;
57303;SDS011;43150;50.986;18.208;2024-03-08T09:43:09;19.50;;;17.50;;
57303;SDS011;43150;50.986;18.208;2024-03-08T09:45:37;19.90;;;17.70;;
57303;SDS011;43150;50.986;18.208;2024-03-08T09:48:10;18.50;;;16.60;;
57303;SDS011;43150;50.986;18.208;2024-03-08T09:50:39;18.80;;;16.90;;
57303;SDS011;43150;50.986;18.208;2024-03-08T09:53:06;20.80;;;18.50;;
57303;SDS011;43150;50.986;18.208;2024-03-08T09:55:36;20.90;;;18.70;;
57303;SDS011;43150;50.986;18.208;2024-03-08T09:58:02;18.90;;;16.50;;
57303;SDS011;43150;50.986;18.208;2024-03-08T10:00:49;20.30;;;18.10;;
57303;SDS011;43150;50.986;18.208;2024-03-08T10:03:14;20.10;;;18.10;;
57303;SDS011;43150;50.986;18.208;2024-03-08T10:05:40;20.10;;;17.70;;
57303;SDS011;43150;50.986;18.208;2024-03-08T10:08:07;19.40;;;17.40;;
57303;SDS011;43150;50.986;18.208;2024-03-08T10:10:35;21.60;;;18.90;;
57303;SDS011;43150;50.986;18.208;2024-03-08T10:13:01;21.70;;;18.50;;
57303;SDS011;43150;50.986;18.208;2024-03-08T10:15:29;19.70;;;17.70;;
57303;SDS011;43150;50.986;18.208;2024-03-08T10:17:57;17.70;;;15.80;;
57303;SDS011;43150;50.986;18.208;2024-03-08T10:20:23;18.40;;;16.60;;
57303;SDS011;43150;50.986;18.208;2024-03-08T10:22:49;20.20;;;17.70;;
57303;SDS011;43150;50.986;18.208;2024-03-08T10:25:15;20.30;;;18.00;;
57303;SDS011;43150;50.986;18.208;2024-03-08T10:27:40;19.20;;;17.20;;
57303;SDS011;43150;50.986;18.208;2024-03-08T10:30:10;18.90;;;16.90;;
57303;SDS011;43150;50.986;18.208;2024-03-08T10:32:37;21.20;;;18.10;;
57303;SDS011;43150;50.986;18.208;2024-03-08T10:35:03;19.40;;;17.20;;
57303;SDS011;43150;50.986;18.208;2024-03-08T10:37:30;18.60;;;16.60;;
57303;SDS011;43150;50.986;18.208;2024-03-08T10:40:07;16.50;;;14.90;;
57303;SDS011;43150;50.986;18.208;2024-03-08T10:42:46;18.50;;;16.60;;
57303;SDS011;43150;50.986;18.208;2024-03-08T10:47:40;18.40;;;16.50;;
57303;SDS011;43150;50.986;18.208;2024-03-08T10:52:35;17.30;;;15.50;;
57303;SDS011;43150;50.986;18.208;2024-03-08T10:55:02;16.70;;;14.90;;
57303;SDS011;43150;50.986;18.208;2024-03-08T10:57:30;18.40;;;16.50;;
57303;SDS011;43150;50.986;18.208;2024-03-08T10:59:56;16.70;;;15.00;;
57303;SDS011;43150;50.986;18.208;2024-03-08T11:02:23;16.70;;;14.50;;
57303;SDS011;43150;50.986;18.208;2024-03-08T11:04:52;16.40;;;14.70;;
57303;SDS011;43150;50.986;18.208;2024-03-08T11:07:22;17.40;;;15.70;;
57303;SDS011;43150;50.986;18.208;2024-03-08T11:09:48;16.40;;;14.60;;
57303;SDS011;43150;50.986;18.208;2024-03-08T11:14:49;17.60;;;15.90;;
57303;SDS011;43150;50.986;18.208;2024-03-08T11:17:15;19.70;;;17.70;;
57303;SDS011;43150;50.986;18.208;2024-03-08T11:19:49;17.60;;;15.80;;
57303;SDS011;43150;50.986;18.208;2024-03-08T11:22:20;18.70;;;16.80;;
57303;SDS011;43150;50.986;18.208;2024-03-08T11:34:31;20.80;;;18.70;;
57303;SDS011;43150;50.986;18.208;2024-03-08T11:36:58;16.40;;;14.80;;
57303;SDS011;43150;50.986;18.208;2024-03-08T11:39:24;18.20;;;16.10;;
57303;SDS011;43150;50.986;18.208;2024-03-08T11:41:50;17.00;;;15.20;;
57303;SDS011;43150;50.986;18.208;2024-03-08T11:44:15;16.70;;;15.00;;
57303;SDS011;43150;50.986;18.208;2024-03-08T11:46:43;17.40;;;15.70;;
57303;SDS011;43150;50.986;18.208;2024-03-08T11:49:13;18.70;;;16.80;;
57303;SDS011;43150;50.986;18.208;2024-03-08T11:51:39;17.00;;;15.30;;
57303;SDS011;43150;50.986;18.208;2024-03-08T11:54:05;17.90;;;16.00;;
57303;SDS011;43150;50.986;18.208;2024-03-08T11:56:32;16.70;;;15.00;;
57303;SDS011;43150;50.986;18.208;2024-03-08T11:58:59;18.70;;;16.80;;
57303;SDS011;43150;50.986;18.208;2024-03-08T12:01:26;19.60;;;17.40;;
57303;SDS011;43150;50.986;18.208;2024-03-08T12:03:55;20.40;;;18.30;;
57303;SDS011;43150;50.986;18.208;2024-03-08T12:06:24;19.80;;;17.80;;
57303;SDS011;43150;50.986;18.208;2024-03-08T12:08:50;20.00;;;18.00;;
57303;SDS011;43150;50.986;18.208;2024-03-08T12:11:22;17.90;;;16.00;;
57303;SDS011;43150;50.986;18.208;2024-03-08T12:13:50;19.50;;;17.50;;
57303;SDS011;43150;50.986;18.208;2024-03-08T12:16:20;21.80;;;18.80;;
57303;SDS011;43150;50.986;18.208;2024-03-08T12:18:48;17.90;;;16.10;;
57303;SDS011;43150;50.986;18.208;2024-03-08T12:21:14;19.20;;;17.30;;
57303;SDS011;43150;50.986;18.208;2024-03-08T12:23:46;22.90;;;20.60;;
57303;SDS011;43150;50.986;18.208;2024-03-08T12:28:41;21.90;;;18.80;;
57303;SDS011;43150;50.986;18.208;2024-03-08T12:31:07;20.90;;;18.70;;
57303;SDS011;43150;50.986;18.208;2024-03-08T12:33:51;23.50;;;20.50;;
57303;SDS011;43150;50.986;18.208;2024-03-08T12:36:18;21.50;;;19.10;;
57303;SDS011;43150;50.986;18.208;2024-03-08T12:38:48;21.00;;;18.60;;
57303;SDS011;43150;50.986;18.208;2024-03-08T12:41:17;19.60;;;17.10;;
57303;SDS011;43150;50.986;18.208;2024-03-08T12:43:47;19.70;;;17.70;;
57303;SDS011;43150;50.986;18.208;2024-03-08T12:46:19;20.50;;;17.90;;
57303;SDS011;43150;50.986;18.208;2024-03-08T12:48:51;23.10;;;19.90;;
57303;SDS011;43150;50.986;18.208;2024-03-08T12:51:19;21.30;;;17.80;;
57303;SDS011;43150;50.986;18.208;2024-03-08T12:53:45;22.50;;;19.00;;
57303;SDS011;43150;50.986;18.208;2024-03-08T12:56:12;22.30;;;18.60;;
57303;SDS011;43150;50.986;18.208;2024-03-08T12:58:37;21.80;;;19.50;;
57303;SDS011;43150;50.986;18.208;2024-03-08T13:01:04;20.60;;;18.40;;
57303;SDS011;43150;50.986;18.208;2024-03-08T13:03:39;20.90;;;18.70;;
57303;SDS011;43150;50.986;18.208;2024-03-08T13:06:05;21.30;;;19.10;;
57303;SDS011;43150;50.986;18.208;2024-03-08T13:08:36;21.20;;;18.60;;
57303;SDS011;43150;50.986;18.208;2024-03-08T13:11:04;23.20;;;19.10;;
57303;SDS011;43150;50.986;18.208;2024-03-08T13:13:30;20.20;;;18.00;;
57303;SDS011;43150;50.986;18.208;2024-03-08T13:15:56;20.20;;;18.10;;
57303;SDS011;43150;50.986;18.208;2024-03-08T13:18:26;21.90;;;19.50;;
57303;SDS011;43150;50.986;18.208;2024-03-08T13:20:53;21.50;;;19.20;;
57303;SDS011;43150;50.986;18.208;2024-03-08T13:23:20;21.50;;;18.90;;
57303;SDS011;43150;50.986;18.208;2024-03-08T13:25:55;21.30;;;19.10;;
57303;SDS011;43150;50.986;18.208;2024-03-08T13:28:22;18.50;;;16.60;;
57303;SDS011;43150;50.986;18.208;2024-03-08T13:30:53;20.60;;;17.50;;
57303;SDS011;43150;50.986;18.208;2024-03-08T13:33:19;20.00;;;17.90;;
57303;SDS011;43150;50.986;18.208;2024-03-08T13:35:45;19.40;;;17.30;;
57303;SDS011;43150;50.986;18.208;2024-03-08T13:38:12;19.60;;;17.50;;
57303;SDS011;43150;50.986;18.208;2024-03-08T13:40:39;21.30;;;18.50;;
57303;SDS011;43150;50.986;18.208;2024-03-08T13:43:06;21.40;;;18.30;;
57303;SDS011;43150;50.986;18.208;2024-03-08T13:45:33;20.40;;;18.10;;
57303;SDS011;43150;50.986;18.208;2024-03-08T13:47:59;20.70;;;18.10;;
57303;SDS011;43150;50.986;18.208;2024-03-08T13:50:24;19.00;;;17.00;;
57303;SDS011;43150;50.986;18.208;2024-03-08T13:52:52;22.30;;;18.90;;
57303;SDS011;43150;50.986;18.208;2024-03-08T13:55:19;22.80;;;19.70;;
57303;SDS011;43150;50.986;18.208;2024-03-08T13:57:45;19.10;;;17.10;;
57303;SDS011;43150;50.986;18.208;2024-03-08T14:00:12;20.10;;;18.00;;
57303;SDS011;43150;50.986;18.208;2024-03-08T14:02:38;19.40;;;16.90;;
57303;SDS011;43150;50.986;18.208;2024-03-08T14:05:09;22.20;;;17.90;;
57303;SDS011;43150;50.986;18.208;2024-03-08T14:07:35;18.10;;;16.00;;
57303;SDS011;43150;50.986;18.208;2024-03-08T14:10:02;19.90;;;16.70;;
57303;SDS011;43150;50.986;18.208;2024-03-08T14:12:27;19.30;;;15.90;;
57303;SDS011;43150;50.986;18.208;2024-03-08T14:14:53;18.70;;;16.60;;
57303;SDS011;43150;50.986;18.208;2024-03-08T14:17:18;18.40;;;16.50;;
57303;SDS011;43150;50.986;18.208;2024-03-08T14:19:44;18.70;;;16.30;;
57303;SDS011;43150;50.986;18.208;2024-03-08T14:22:10;18.60;;;16.50;;
57303;SDS011;43150;50.986;18.208;2024-03-08T14:24:40;19.10;;;16.80;;
57303;SDS011;43150;50.986;18.208;2024-03-08T14:27:07;18.10;;;16.10;;
57303;SDS011;43150;50.986;18.208;2024-03-08T14:29:35;18.30;;;16.40;;
57303;SDS011;43150;50.986;18.208;2024-03-08T14:32:01;17.20;;;15.40;;
57303;SDS011;43150;50.986;18.208;2024-03-08T14:34:30;18.40;;;16.00;;
57303;SDS011;43150;50.986;18.208;2024-03-08T14:36:55;18.90;;;16.40;;
57303;SDS011;43150;50.986;18.208;2024-03-08T14:39:21;19.30;;;15.40;;
57303;SDS011;43150;50.986;18.208;2024-03-08T14:41:56;18.70;;;16.70;;
57303;SDS011;43150;50.986;18.208;2024-03-08T14:44:23;17.90;;;16.00;;
57303;SDS011;43150;50.986;18.208;2024-03-08T14:46:54;18.60;;;15.30;;
57303;SDS011;43150;50.986;18.208;2024-03-08T14:49:20;18.20;;;16.20;;
57303;SDS011;43150;50.986;18.208;2024-03-08T14:51:46;18.40;;;16.30;;
57303;SDS011;43150;50.986;18.208;2024-03-08T14:54:12;17.70;;;15.30;;
57303;SDS011;43150;50.986;18.208;2024-03-08T14:56:38;18.80;;;16.50;;
57303;SDS011;43150;50.986;18.208;2024-03-08T14:59:06;17.80;;;14.40;;
57303;SDS011;43150;50.986;18.208;2024-03-08T15:01:32;20.00;;;16.60;;
57303;SDS011;43150;50.986;18.208;2024-03-08T15:04:01;19.60;;;15.50;;
57303;SDS011;43150;50.986;18.208;2024-03-08T15:06:38;19.50;;;15.80;;
57303;SDS011;43150;50.986;18.208;2024-03-08T15:09:05;19.70;;;17.60;;
57303;SDS011;43150;50.986;18.208;2024-03-08T15:11:45;17.60;;;15.10;;
57303;SDS011;43150;50.986;18.208;2024-03-08T15:14:11;18.30;;;15.90;;
57303;SDS011;43150;50.986;18.208;2024-03-08T15:16:37;21.40;;;16.20;;
57303;SDS011;43150;50.986;18.208;2024-03-08T15:19:05;18.40;;;15.60;;
57303;SDS011;43150;50.986;18.208;2024-03-08T15:21:31;21.00;;;15.90;;
57303;SDS011;43150;50.986;18.208;2024-03-08T15:23:56;18.80;;;15.20;;
57303;SDS011;43150;50.986;18.208;2024-03-08T15:26:22;17.70;;;15.60;;
57303;SDS011;43150;50.986;18.208;2024-03-08T15:28:47;18.80;;;15.80;;
57303;SDS011;43150;50.986;18.208;2024-03-08T15:31:17;20.20;;;16.00;;
57303;SDS011;43150;50.986;18.208;2024-03-08T15:33:44;17.00;;;14.40;;
57303;SDS011;43150;50.986;18.208;2024-03-08T15:36:42;17.30;;;15.10;;
57303;SDS011;43150;50.986;18.208;2024-03-08T15:39:08;18.80;;;16.40;;
57303;SDS011;43150;50.986;18.208;2024-03-08T15:41:35;16.60;;;7.20;;
57303;SDS011;43150;50.986;18.208;2024-03-08T15:44:01;19.10;;;15.00;;
57303;SDS011;43150;50.986;18.208;2024-03-08T15:46:26;12.90;;;7.00;;
57303;SDS011;43150;50.986;18.208;2024-03-08T15:48:52;18.50;;;15.50;;
57303;SDS011;43150;50.986;18.208;2024-03-08T15:51:18;20.00;;;15.50;;
57303;SDS011;43150;50.986;18.208;2024-03-08T15:53:44;18.10;;;15.20;;
57303;SDS011;43150;50.986;18.208;2024-03-08T15:56:18;8.40;;;5.90;;
57303;SDS011;43150;50.986;18.208;2024-03-08T15:58:43;10.90;;;6.10;;
57303;SDS011;43150;50.986;18.208;2024-03-08T16:01:09;18.90;;;15.70;;
57303;SDS011;43150;50.986;18.208;2024-03-08T16:03:36;9.80;;;6.00;;
57303;SDS011;43150;50.986;18.208;2024-03-08T16:06:01;10.20;;;6.00;;
57303;SDS011;43150;50.986;18.208;2024-03-08T16:08:30;10.60;;;6.60;;
57303;SDS011;43150;50.986;18.208;2024-03-08T16:10:57;10.90;;;6.30;;
57303;SDS011;43150;50.986;18.208;2024-03-08T16:13:24;13.70;;;7.20;;
57303;SDS011;43150;50.986;18.208;2024-03-08T16:15:50;12.90;;;5.40;;
57303;SDS011;43150;50.986;18.208;2024-03-08T16:18:17;13.10;;;5.80;;
57303;SDS011;43150;50.986;18.208;2024-03-08T16:20:49;12.50;;;6.60;;
57303;SDS011;43150;50.986;18.208;2024-03-08T16:23:15;18.00;;;8.30;;
57303;SDS011;43150;50.986;18.208;2024-03-08T16:25:42;9.60;;;4.50;;
57303;SDS011;43150;50.986;18.208;2024-03-08T16:28:07;13.90;;;7.10;;
57303;SDS011;43150;50.986;18.208;2024-03-08T16:30:37;13.30;;;7.30;;
57303;SDS011;43150;50.986;18.208;2024-03-08T16:33:02;12.30;;;6.00;;
57303;SDS011;43150;50.986;18.208;2024-03-08T16:35:30;13.80;;;7.10;;
57303;SDS011;43150;50.986;18.208;2024-03-08T16:37:56;13.00;;;6.80;;
57303;SDS011;43150;50.986;18.208;2024-03-08T16:40:22;12.40;;;6.20;;
57303;SDS011;43150;50.986;18.208;2024-03-08T16:42:49;8.80;;;3.90;;
57303;SDS011;43150;50.986;18.208;2024-03-08T16:45:20;12.80;;;6.60;;
57303;SDS011;43150;50.986;18.208;2024-03-08T16:47:46;18.20;;;6.50;;
57303;SDS011;43150;50.986;18.208;2024-03-08T16:50:12;12.10;;;5.70;;
57303;SDS011;43150;50.986;18.208;2024-03-08T16:52:41;13.50;;;6.60;;
57303;SDS011;43150;50.986;18.208;2024-03-08T16:55:08;12.70;;;5.90;;
57303;SDS011;43150;50.986;18.208;2024-03-08T16:57:41;12.40;;;5.30;;
57303;SDS011;43150;50.986;18.208;2024-03-08T17:00:13;14.50;;;6.10;;
57303;SDS011;43150;50.986;18.208;2024-03-08T17:02:39;13.30;;;6.10;;
57303;SDS011;43150;50.986;18.208;2024-03-08T17:05:05;12.50;;;7.10;;
57303;SDS011;43150;50.986;18.208;2024-03-08T17:07:32;14.70;;;7.20;;
57303;SDS011;43150;50.986;18.208;2024-03-08T17:10:00;16.10;;;8.20;;